sensor_id;sensor_type;location;lat;lon;timestamp;P1;durP1;ratioP1;P2;durP2;ratioP2
58071;SDS011;60383;46.626;18.866;2023-02-28T00:01:29;11.65;;;7.10;;
58071;SDS011;60383;46.626;18.866;2023-02-28T00:03:55;11.00;;;7.47;;
58071;SDS011;60383;46.626;18.866;2023-02-28T00:06:21;13.25;;;6.97;;
58071;SDS011;60383;46.626;18.866;2023-02-28T00:08:46;9.85;;;7.30;;
58071;SDS011;60383;46.626;18.866;2023-02-28T00:11:12;12.30;;;7.60;;
58071;SDS011;60383;46.626;18.866;2023-02-28T00:13:40;12.40;;;7.55;;
58071;SDS011;60383;46.626;18.866;2023-02-28T00:16:09;10.82;;;7.63;;
58071;SDS011;60383;46.626;18.866;2023-02-28T00:18:40;11.95;;;6.95;;
58071;SDS011;60383;46.626;18.866;2023-02-28T00:21:06;8.65;;;6.53;;
58071;SDS011;60383;46.626;18.866;2023-02-28T00:23:32;10.63;;;7.28;;
58071;SDS011;60383;46.626;18.866;2023-02-28T00:25:58;11.18;;;6.70;;
58071;SDS011;60383;46.626;18.866;2023-02-28T00:28:23;10.38;;;6.90;;
58071;SDS011;60383;46.626;18.866;2023-02-28T00:30:49;11.02;;;6.88;;
58071;SDS011;60383;46.626;18.866;2023-02-28T00:33:15;10.95;;;7.25;;
58071;SDS011;60383;46.626;18.866;2023-02-28T00:35:41;12.27;;;8.13;;
58071;SDS011;60383;46.626;18.866;2023-02-28T00:38:07;11.57;;;7.75;;
58071;SDS011;60383;46.626;18.866;2023-02-28T00:40:32;11.55;;;7.30;;
58071;SDS011;60383;46.626;18.866;2023-02-28T00:42:58;12.30;;;7.78;;
58071;SDS011;60383;46.626;18.866;2023-02-28T00:45:23;12.23;;;7.88;;
58071;SDS011;60383;46.626;18.866;2023-02-28T00:47:49;12.82;;;8.15;;
58071;SDS011;60383;46.626;18.866;2023-02-28T00:50:18;11.48;;;7.72;;
58071;SDS011;60383;46.626;18.866;2023-02-28T00:52:45;11.25;;;7.70;;
58071;SDS011;60383;46.626;18.866;2023-02-28T00:55:10;12.15;;;8.07;;
58071;SDS011;60383;46.626;18.866;2023-02-28T00:57:36;11.60;;;6.85;;
58071;SDS011;60383;46.626;18.866;2023-02-28T01:00:01;16.00;;;8.60;;
58071;SDS011;60383;46.626;18.866;2023-02-28T01:02:28;13.68;;;8.30;;
58071;SDS011;60383;46.626;18.866;2023-02-28T01:04:54;12.73;;;8.40;;
58071;SDS011;60383;46.626;18.866;2023-02-28T01:07:19;13.18;;;8.00;;
58071;SDS011;60383;46.626;18.866;2023-02-28T01:09:45;14.88;;;8.38;;
58071;SDS011;60383;46.626;18.866;2023-02-28T01:12:10;13.00;;;7.78;;
58071;SDS011;60383;46.626;18.866;2023-02-28T01:14:35;13.57;;;8.23;;
58071;SDS011;60383;46.626;18.866;2023-02-28T01:17:01;12.43;;;8.48;;
58071;SDS011;60383;46.626;18.866;2023-02-28T01:19:27;11.90;;;8.10;;
58071;SDS011;60383;46.626;18.866;2023-02-28T01:21:52;11.43;;;7.53;;
58071;SDS011;60383;46.626;18.866;2023-02-28T01:24:17;12.23;;;8.00;;
58071;SDS011;60383;46.626;18.866;2023-02-28T01:26:43;13.25;;;7.93;;
58071;SDS011;60383;46.626;18.866;2023-02-28T01:29:08;11.82;;;8.20;;
58071;SDS011;60383;46.626;18.866;2023-02-28T01:31:34;10.80;;;7.03;;
58071;SDS011;60383;46.626;18.866;2023-02-28T01:34:00;11.07;;;7.65;;
58071;SDS011;60383;46.626;18.866;2023-02-28T01:36:25;12.07;;;8.00;;
58071;SDS011;60383;46.626;18.866;2023-02-28T01:38:51;11.98;;;7.68;;
58071;SDS011;60383;46.626;18.866;2023-02-28T01:46:15;12.95;;;8.02;;
58071;SDS011;60383;46.626;18.866;2023-02-28T01:48:42;13.48;;;8.02;;
58071;SDS011;60383;46.626;18.866;2023-02-28T01:51:20;14.25;;;8.88;;
58071;SDS011;60383;46.626;18.866;2023-02-28T01:53:53;11.90;;;7.68;;
58071;SDS011;60383;46.626;18.866;2023-02-28T01:56:26;13.25;;;9.00;;
58071;SDS011;60383;46.626;18.866;2023-02-28T01:58:54;11.98;;;7.88;;
58071;SDS011;60383;46.626;18.866;2023-02-28T02:01:21;15.45;;;8.90;;
58071;SDS011;60383;46.626;18.866;2023-02-28T02:03:48;13.75;;;8.35;;
58071;SDS011;60383;46.626;18.866;2023-02-28T02:06:25;14.77;;;9.25;;
58071;SDS011;60383;46.626;18.866;2023-02-28T02:08:55;11.52;;;7.95;;
58071;SDS011;60383;46.626;18.866;2023-02-28T02:11:21;11.23;;;7.55;;
58071;SDS011;60383;46.626;18.866;2023-02-28T02:36:07;11.85;;;7.72;;
58071;SDS011;60383;46.626;18.866;2023-02-28T02:41:15;15.95;;;9.27;;
58071;SDS011;60383;46.626;18.866;2023-02-28T02:44:02;14.15;;;8.50;;
58071;SDS011;60383;46.626;18.866;2023-02-28T02:46:42;12.35;;;8.32;;
58071;SDS011;60383;46.626;18.866;2023-02-28T02:49:11;13.27;;;8.50;;
58071;SDS011;60383;46.626;18.866;2023-02-28T02:51:42;15.77;;;8.65;;
58071;SDS011;60383;46.626;18.866;2023-02-28T02:54:12;12.80;;;8.88;;
58071;SDS011;60383;46.626;18.866;2023-02-28T02:56:53;14.55;;;8.15;;
58071;SDS011;60383;46.626;18.866;2023-02-28T02:59:22;11.15;;;7.97;;
58071;SDS011;60383;46.626;18.866;2023-02-28T03:01:53;12.90;;;8.82;;
58071;SDS011;60383;46.626;18.866;2023-02-28T03:04:22;13.27;;;8.48;;
58071;SDS011;60383;46.626;18.866;2023-02-28T03:06:50;12.07;;;8.20;;
58071;SDS011;60383;46.626;18.866;2023-02-28T03:09:23;13.50;;;8.60;;
58071;SDS011;60383;46.626;18.866;2023-02-28T03:11:50;12.60;;;8.88;;
58071;SDS011;60383;46.626;18.866;2023-02-28T03:24:54;13.63;;;8.60;;
58071;SDS011;60383;46.626;18.866;2023-02-28T03:30:03;11.88;;;8.30;;
58071;SDS011;60383;46.626;18.866;2023-02-28T03:32:42;12.23;;;8.13;;
58071;SDS011;60383;46.626;18.866;2023-02-28T03:35:22;13.25;;;8.38;;
58071;SDS011;60383;46.626;18.866;2023-02-28T03:37:52;11.35;;;7.85;;
58071;SDS011;60383;46.626;18.866;2023-02-28T03:40:23;10.68;;;7.80;;
58071;SDS011;60383;46.626;18.866;2023-02-28T03:42:54;11.88;;;8.35;;
58071;SDS011;60383;46.626;18.866;2023-02-28T03:45:25;12.48;;;8.43;;
58071;SDS011;60383;46.626;18.866;2023-02-28T03:47:56;12.05;;;8.30;;
58071;SDS011;60383;46.626;18.866;2023-02-28T03:50:47;12.57;;;8.70;;
58071;SDS011;60383;46.626;18.866;2023-02-28T03:55:45;11.50;;;7.90;;
58071;SDS011;60383;46.626;18.866;2023-02-28T03:58:16;13.27;;;8.02;;
58071;SDS011;60383;46.626;18.866;2023-02-28T04:00:44;13.02;;;8.05;;
58071;SDS011;60383;46.626;18.866;2023-02-28T04:03:12;10.82;;;7.43;;
58071;SDS011;60383;46.626;18.866;2023-02-28T04:05:46;10.68;;;7.97;;
58071;SDS011;60383;46.626;18.866;2023-02-28T04:08:18;14.02;;;7.95;;
58071;SDS011;60383;46.626;18.866;2023-02-28T04:10:45;11.93;;;7.80;;
58071;SDS011;60383;46.626;18.866;2023-02-28T04:13:19;12.18;;;8.18;;
58071;SDS011;60383;46.626;18.866;2023-02-28T04:15:45;11.68;;;7.63;;
58071;SDS011;60383;46.626;18.866;2023-02-28T04:18:10;11.23;;;7.60;;
58071;SDS011;60383;46.626;18.866;2023-02-28T04:20:36;12.52;;;8.80;;
58071;SDS011;60383;46.626;18.866;2023-02-28T04:23:01;11.95;;;8.10;;
58071;SDS011;60383;46.626;18.866;2023-02-28T04:25:26;12.95;;;7.90;;
58071;SDS011;60383;46.626;18.866;2023-02-28T04:27:52;12.65;;;8.18;;
58071;SDS011;60383;46.626;18.866;2023-02-28T04:30:17;12.60;;;8.00;;
58071;SDS011;60383;46.626;18.866;2023-02-28T04:32:43;12.35;;;8.55;;
58071;SDS011;60383;46.626;18.866;2023-02-28T04:35:08;12.48;;;8.43;;
58071;SDS011;60383;46.626;18.866;2023-02-28T04:37:34;10.35;;;7.30;;
58071;SDS011;60383;46.626;18.866;2023-02-28T04:40:02;13.10;;;7.68;;
58071;SDS011;60383;46.626;18.866;2023-02-28T04:42:28;12.60;;;8.25;;
58071;SDS011;60383;46.626;18.866;2023-02-28T04:45:00;12.05;;;8.18;;
58071;SDS011;60383;46.626;18.866;2023-02-28T04:47:26;13.27;;;8.18;;
58071;SDS011;60383;46.626;18.866;2023-02-28T04:49:51;11.98;;;8.40;;
58071;SDS011;60383;46.626;18.866;2023-02-28T04:52:17;11.38;;;8.30;;
58071;SDS011;60383;46.626;18.866;2023-02-28T04:54:42;13.15;;;7.75;;
58071;SDS011;60383;46.626;18.866;2023-02-28T04:57:08;11.52;;;7.70;;
58071;SDS011;60383;46.626;18.866;2023-02-28T04:59:33;11.43;;;7.75;;
58071;SDS011;60383;46.626;18.866;2023-02-28T05:01:59;12.70;;;7.47;;
58071;SDS011;60383;46.626;18.866;2023-02-28T05:04:24;11.30;;;7.55;;
58071;SDS011;60383;46.626;18.866;2023-02-28T05:06:49;10.23;;;7.38;;
58071;SDS011;60383;46.626;18.866;2023-02-28T05:09:15;11.10;;;7.07;;
58071;SDS011;60383;46.626;18.866;2023-02-28T05:11:40;16.48;;;8.15;;
58071;SDS011;60383;46.626;18.866;2023-02-28T05:14:10;17.30;;;9.88;;
58071;SDS011;60383;46.626;18.866;2023-02-28T05:16:37;31.15;;;14.30;;
58071;SDS011;60383;46.626;18.866;2023-02-28T05:19:02;36.13;;;14.90;;
58071;SDS011;60383;46.626;18.866;2023-02-28T05:24:00;45.88;;;18.33;;
58071;SDS011;60383;46.626;18.866;2023-02-28T05:26:27;47.90;;;19.63;;
58071;SDS011;60383;46.626;18.866;2023-02-28T05:28:53;29.67;;;14.55;;
58071;SDS011;60383;46.626;18.866;2023-02-28T05:31:19;26.27;;;12.60;;
58071;SDS011;60383;46.626;18.866;2023-02-28T05:33:44;19.33;;;11.85;;
58071;SDS011;60383;46.626;18.866;2023-02-28T05:36:10;16.73;;;10.75;;
58071;SDS011;60383;46.626;18.866;2023-02-28T05:38:35;15.68;;;11.63;;
58071;SDS011;60383;46.626;18.866;2023-02-28T05:41:04;15.70;;;11.30;;
58071;SDS011;60383;46.626;18.866;2023-02-28T05:43:34;16.45;;;11.48;;
58071;SDS011;60383;46.626;18.866;2023-02-28T05:46:01;13.35;;;9.50;;
58071;SDS011;60383;46.626;18.866;2023-02-28T05:48:30;15.82;;;8.65;;
58071;SDS011;60383;46.626;18.866;2023-02-28T05:50:57;13.65;;;8.50;;
58071;SDS011;60383;46.626;18.866;2023-02-28T05:53:23;10.32;;;6.80;;
58071;SDS011;60383;46.626;18.866;2023-02-28T05:55:48;12.85;;;8.07;;
58071;SDS011;60383;46.626;18.866;2023-02-28T05:58:14;15.82;;;7.72;;
58071;SDS011;60383;46.626;18.866;2023-02-28T06:00:39;10.65;;;7.22;;
58071;SDS011;60383;46.626;18.866;2023-02-28T06:03:05;13.60;;;7.22;;
58071;SDS011;60383;46.626;18.866;2023-02-28T06:05:30;14.15;;;7.97;;
58071;SDS011;60383;46.626;18.866;2023-02-28T06:07:55;11.40;;;7.55;;
58071;SDS011;60383;46.626;18.866;2023-02-28T06:10:21;10.65;;;6.95;;
58071;SDS011;60383;46.626;18.866;2023-02-28T06:12:46;11.48;;;7.13;;
58071;SDS011;60383;46.626;18.866;2023-02-28T06:15:15;10.27;;;7.32;;
58071;SDS011;60383;46.626;18.866;2023-02-28T06:17:42;11.57;;;7.32;;
58071;SDS011;60383;46.626;18.866;2023-02-28T06:20:09;10.52;;;7.32;;
58071;SDS011;60383;46.626;18.866;2023-02-28T06:22:37;12.93;;;7.22;;
58071;SDS011;60383;46.626;18.866;2023-02-28T06:25:04;10.93;;;7.18;;
58071;SDS011;60383;46.626;18.866;2023-02-28T06:27:30;10.23;;;7.03;;
58071;SDS011;60383;46.626;18.866;2023-02-28T06:29:57;14.43;;;8.00;;
58071;SDS011;60383;46.626;18.866;2023-02-28T06:32:22;14.63;;;8.77;;
58071;SDS011;60383;46.626;18.866;2023-02-28T06:34:47;11.45;;;7.55;;
58071;SDS011;60383;46.626;18.866;2023-02-28T06:37:13;12.75;;;7.30;;
58071;SDS011;60383;46.626;18.866;2023-02-28T06:39:39;12.38;;;8.30;;
58071;SDS011;60383;46.626;18.866;2023-02-28T06:42:05;10.15;;;7.03;;
58071;SDS011;60383;46.626;18.866;2023-02-28T06:44:30;10.57;;;6.88;;
58071;SDS011;60383;46.626;18.866;2023-02-28T06:47:03;11.90;;;7.13;;
58071;SDS011;60383;46.626;18.866;2023-02-28T06:49:30;9.38;;;6.50;;
58071;SDS011;60383;46.626;18.866;2023-02-28T06:51:56;9.77;;;6.28;;
58071;SDS011;60383;46.626;18.866;2023-02-28T06:54:22;10.32;;;6.80;;
58071;SDS011;60383;46.626;18.866;2023-02-28T06:56:47;9.05;;;6.32;;
58071;SDS011;60383;46.626;18.866;2023-02-28T06:59:13;9.35;;;6.50;;
58071;SDS011;60383;46.626;18.866;2023-02-28T07:01:39;11.50;;;7.38;;
58071;SDS011;60383;46.626;18.866;2023-02-28T07:04:05;10.80;;;7.10;;
58071;SDS011;60383;46.626;18.866;2023-02-28T07:06:31;12.13;;;7.15;;
58071;SDS011;60383;46.626;18.866;2023-02-28T07:08:56;11.68;;;7.53;;
58071;SDS011;60383;46.626;18.866;2023-02-28T07:11:23;11.18;;;7.25;;
58071;SDS011;60383;46.626;18.866;2023-02-28T07:13:54;14.23;;;7.80;;
58071;SDS011;60383;46.626;18.866;2023-02-28T07:16:20;9.07;;;6.15;;
58071;SDS011;60383;46.626;18.866;2023-02-28T07:18:47;11.07;;;6.32;;
58071;SDS011;60383;46.626;18.866;2023-02-28T07:21:13;10.20;;;6.07;;
58071;SDS011;60383;46.626;18.866;2023-02-28T07:23:39;10.95;;;5.93;;
58071;SDS011;60383;46.626;18.866;2023-02-28T07:26:07;12.70;;;6.07;;
58071;SDS011;60383;46.626;18.866;2023-02-28T07:28:36;13.25;;;9.07;;
58071;SDS011;60383;46.626;18.866;2023-02-28T07:31:04;9.90;;;6.68;;
58071;SDS011;60383;46.626;18.866;2023-02-28T07:33:30;9.85;;;6.10;;
58071;SDS011;60383;46.626;18.866;2023-02-28T07:36:05;9.20;;;6.10;;
58071;SDS011;60383;46.626;18.866;2023-02-28T07:38:36;11.52;;;7.03;;
58071;SDS011;60383;46.626;18.866;2023-02-28T07:41:02;9.48;;;6.28;;
58071;SDS011;60383;46.626;18.866;2023-02-28T07:43:32;9.18;;;6.43;;
58071;SDS011;60383;46.626;18.866;2023-02-28T07:46:04;10.93;;;6.68;;
58071;SDS011;60383;46.626;18.866;2023-02-28T07:48:32;11.20;;;6.63;;
58071;SDS011;60383;46.626;18.866;2023-02-28T07:50:58;11.90;;;7.63;;
58071;SDS011;60383;46.626;18.866;2023-02-28T07:53:24;12.00;;;7.25;;
58071;SDS011;60383;46.626;18.866;2023-02-28T07:55:51;10.45;;;6.60;;
58071;SDS011;60383;46.626;18.866;2023-02-28T07:58:19;13.25;;;7.30;;
58071;SDS011;60383;46.626;18.866;2023-02-28T08:00:44;9.23;;;6.68;;
58071;SDS011;60383;46.626;18.866;2023-02-28T08:03:13;11.63;;;7.00;;
58071;SDS011;60383;46.626;18.866;2023-02-28T08:05:39;9.48;;;6.30;;
58071;SDS011;60383;46.626;18.866;2023-02-28T08:08:05;11.27;;;6.78;;
58071;SDS011;60383;46.626;18.866;2023-02-28T08:10:31;9.85;;;7.13;;
58071;SDS011;60383;46.626;18.866;2023-02-28T08:12:57;9.05;;;5.88;;
58071;SDS011;60383;46.626;18.866;2023-02-28T08:15:22;11.15;;;6.97;;
58071;SDS011;60383;46.626;18.866;2023-02-28T08:17:48;10.35;;;6.30;;
58071;SDS011;60383;46.626;18.866;2023-02-28T08:20:13;9.25;;;6.18;;
58071;SDS011;60383;46.626;18.866;2023-02-28T08:22:39;11.38;;;6.45;;
58071;SDS011;60383;46.626;18.866;2023-02-28T08:25:04;8.63;;;6.00;;
58071;SDS011;60383;46.626;18.866;2023-02-28T08:27:32;9.20;;;5.95;;
58071;SDS011;60383;46.626;18.866;2023-02-28T08:29:57;9.75;;;6.70;;
58071;SDS011;60383;46.626;18.866;2023-02-28T08:32:23;8.98;;;6.45;;
58071;SDS011;60383;46.626;18.866;2023-02-28T08:34:48;11.35;;;6.65;;
58071;SDS011;60383;46.626;18.866;2023-02-28T08:37:14;11.00;;;6.20;;
58071;SDS011;60383;46.626;18.866;2023-02-28T08:39:39;8.52;;;6.15;;
58071;SDS011;60383;46.626;18.866;2023-02-28T08:42:05;10.55;;;6.88;;
58071;SDS011;60383;46.626;18.866;2023-02-28T08:44:30;11.45;;;7.18;;
58071;SDS011;60383;46.626;18.866;2023-02-28T08:46:56;11.00;;;6.50;;
58071;SDS011;60383;46.626;18.866;2023-02-28T08:49:21;8.82;;;5.88;;
58071;SDS011;60383;46.626;18.866;2023-02-28T08:51:46;10.77;;;6.38;;
58071;SDS011;60383;46.626;18.866;2023-02-28T08:54:12;8.70;;;5.80;;
58071;SDS011;60383;46.626;18.866;2023-02-28T08:56:38;9.38;;;6.28;;
58071;SDS011;60383;46.626;18.866;2023-02-28T08:59:03;8.07;;;5.63;;
58071;SDS011;60383;46.626;18.866;2023-02-28T09:01:29;10.27;;;6.30;;
58071;SDS011;60383;46.626;18.866;2023-02-28T09:03:56;9.07;;;5.75;;
58071;SDS011;60383;46.626;18.866;2023-02-28T09:06:23;10.52;;;6.35;;
58071;SDS011;60383;46.626;18.866;2023-02-28T09:08:50;9.05;;;6.43;;
58071;SDS011;60383;46.626;18.866;2023-02-28T09:11:16;10.25;;;6.45;;
58071;SDS011;60383;46.626;18.866;2023-02-28T09:13:42;9.75;;;6.68;;
58071;SDS011;60383;46.626;18.866;2023-02-28T09:16:08;9.50;;;6.13;;
58071;SDS011;60383;46.626;18.866;2023-02-28T09:18:37;10.32;;;6.80;;
58071;SDS011;60383;46.626;18.866;2023-02-28T09:21:04;9.80;;;6.20;;
58071;SDS011;60383;46.626;18.866;2023-02-28T09:23:30;11.48;;;7.18;;
58071;SDS011;60383;46.626;18.866;2023-02-28T09:25:55;11.75;;;7.50;;
58071;SDS011;60383;46.626;18.866;2023-02-28T09:28:21;9.88;;;7.13;;
58071;SDS011;60383;46.626;18.866;2023-02-28T09:30:48;10.25;;;7.00;;
58071;SDS011;60383;46.626;18.866;2023-02-28T09:33:16;12.13;;;7.00;;
58071;SDS011;60383;46.626;18.866;2023-02-28T09:35:45;9.13;;;6.05;;
58071;SDS011;60383;46.626;18.866;2023-02-28T09:38:11;9.23;;;6.38;;
58071;SDS011;60383;46.626;18.866;2023-02-28T09:40:37;9.85;;;6.57;;
58071;SDS011;60383;46.626;18.866;2023-02-28T09:43:10;9.57;;;6.85;;
58071;SDS011;60383;46.626;18.866;2023-02-28T09:45:41;10.43;;;6.75;;
58071;SDS011;60383;46.626;18.866;2023-02-28T09:48:14;10.50;;;6.97;;
58071;SDS011;60383;46.626;18.866;2023-02-28T09:50:46;12.07;;;7.57;;
58071;SDS011;60383;46.626;18.866;2023-02-28T09:53:31;10.02;;;6.85;;
58071;SDS011;60383;46.626;18.866;2023-02-28T09:56:01;10.43;;;6.55;;
58071;SDS011;60383;46.626;18.866;2023-02-28T10:01:12;10.68;;;6.32;;
58071;SDS011;60383;46.626;18.866;2023-02-28T10:03:46;9.55;;;6.63;;
58071;SDS011;60383;46.626;18.866;2023-02-28T10:08:58;10.25;;;6.88;;
58071;SDS011;60383;46.626;18.866;2023-02-28T10:11:28;11.40;;;6.80;;
58071;SDS011;60383;46.626;18.866;2023-02-28T10:14:13;10.18;;;7.03;;
58071;SDS011;60383;46.626;18.866;2023-02-28T10:19:34;9.55;;;6.45;;
58071;SDS011;60383;46.626;18.866;2023-02-28T10:24:51;9.55;;;5.95;;
58071;SDS011;60383;46.626;18.866;2023-02-28T10:27:22;9.32;;;6.70;;
58071;SDS011;60383;46.626;18.866;2023-02-28T10:29:50;10.05;;;6.78;;
58071;SDS011;60383;46.626;18.866;2023-02-28T10:32:18;9.30;;;6.53;;
58071;SDS011;60383;46.626;18.866;2023-02-28T10:37:50;10.88;;;7.68;;
58071;SDS011;60383;46.626;18.866;2023-02-28T10:45:32;11.10;;;7.40;;
58071;SDS011;60383;46.626;18.866;2023-02-28T10:50:43;10.23;;;6.53;;
58071;SDS011;60383;46.626;18.866;2023-02-28T10:53:17;9.35;;;6.80;;
58071;SDS011;60383;46.626;18.866;2023-02-28T10:55:57;9.68;;;6.55;;
58071;SDS011;60383;46.626;18.866;2023-02-28T10:58:30;9.20;;;6.47;;
58071;SDS011;60383;46.626;18.866;2023-02-28T11:01:12;11.02;;;6.95;;
58071;SDS011;60383;46.626;18.866;2023-02-28T11:03:40;8.27;;;5.88;;
58071;SDS011;60383;46.626;18.866;2023-02-28T11:06:06;11.55;;;8.18;;
58071;SDS011;60383;46.626;18.866;2023-02-28T11:09:14;10.98;;;6.65;;
58071;SDS011;60383;46.626;18.866;2023-02-28T11:11:43;9.90;;;7.07;;
58071;SDS011;60383;46.626;18.866;2023-02-28T11:14:22;9.57;;;6.82;;
58071;SDS011;60383;46.626;18.866;2023-02-28T11:16:50;9.13;;;6.40;;
58071;SDS011;60383;46.626;18.866;2023-02-28T11:19:24;9.05;;;6.78;;
58071;SDS011;60383;46.626;18.866;2023-02-28T11:21:57;9.35;;;7.03;;
58071;SDS011;60383;46.626;18.866;2023-02-28T11:24:36;9.52;;;6.80;;
58071;SDS011;60383;46.626;18.866;2023-02-28T11:27:11;9.32;;;6.85;;
58071;SDS011;60383;46.626;18.866;2023-02-28T11:29:55;12.77;;;7.22;;
58071;SDS011;60383;46.626;18.866;2023-02-28T11:32:22;9.25;;;6.35;;
58071;SDS011;60383;46.626;18.866;2023-02-28T11:35:00;9.07;;;6.50;;
58071;SDS011;60383;46.626;18.866;2023-02-28T11:37:36;8.07;;;6.22;;
58071;SDS011;60383;46.626;18.866;2023-02-28T11:40:05;9.18;;;6.50;;
58071;SDS011;60383;46.626;18.866;2023-02-28T11:48:12;12.32;;;8.80;;
58071;SDS011;60383;46.626;18.866;2023-02-28T11:59:01;8.43;;;6.18;;
58071;SDS011;60383;46.626;18.866;2023-02-28T12:07:03;8.05;;;5.75;;
58071;SDS011;60383;46.626;18.866;2023-02-28T12:15:13;10.65;;;7.80;;
58071;SDS011;60383;46.626;18.866;2023-02-28T12:17:53;8.52;;;6.90;;
58071;SDS011;60383;46.626;18.866;2023-02-28T12:26:14;10.23;;;7.07;;
58071;SDS011;60383;46.626;18.866;2023-02-28T12:28:42;9.10;;;6.45;;
58071;SDS011;60383;46.626;18.866;2023-02-28T12:31:26;8.68;;;6.15;;
58071;SDS011;60383;46.626;18.866;2023-02-28T12:33:56;8.02;;;6.28;;
58071;SDS011;60383;46.626;18.866;2023-02-28T12:36:26;10.07;;;6.80;;
58071;SDS011;60383;46.626;18.866;2023-02-28T12:38:59;9.98;;;7.18;;
58071;SDS011;60383;46.626;18.866;2023-02-28T12:41:37;9.30;;;7.10;;
58071;SDS011;60383;46.626;18.866;2023-02-28T12:44:22;10.48;;;6.68;;
58071;SDS011;60383;46.626;18.866;2023-02-28T12:46:55;10.88;;;6.47;;
58071;SDS011;60383;46.626;18.866;2023-02-28T12:49:29;9.18;;;6.93;;
58071;SDS011;60383;46.626;18.866;2023-02-28T12:51:59;9.90;;;6.95;;
58071;SDS011;60383;46.626;18.866;2023-02-28T13:00:01;9.18;;;6.70;;
58071;SDS011;60383;46.626;18.866;2023-02-28T13:10:44;9.25;;;6.78;;
58071;SDS011;60383;46.626;18.866;2023-02-28T13:13:15;9.88;;;6.90;;
58071;SDS011;60383;46.626;18.866;2023-02-28T13:21:05;9.70;;;6.35;;
58071;SDS011;60383;46.626;18.866;2023-02-28T13:26:12;9.05;;;6.55;;
58071;SDS011;60383;46.626;18.866;2023-02-28T13:28:57;9.15;;;6.60;;
58071;SDS011;60383;46.626;18.866;2023-02-28T13:31:25;8.80;;;6.65;;
58071;SDS011;60383;46.626;18.866;2023-02-28T13:39:11;9.48;;;7.15;;
58071;SDS011;60383;46.626;18.866;2023-02-28T13:42:01;10.77;;;6.90;;
58071;SDS011;60383;46.626;18.866;2023-02-28T14:06:32;11.82;;;7.63;;
58071;SDS011;60383;46.626;18.866;2023-02-28T14:13:56;11.77;;;8.25;;
58071;SDS011;60383;46.626;18.866;2023-02-28T14:16:26;9.07;;;6.47;;
58071;SDS011;60383;46.626;18.866;2023-02-28T14:19:04;10.77;;;7.07;;
58071;SDS011;60383;46.626;18.866;2023-02-28T14:21:58;10.82;;;7.18;;
58071;SDS011;60383;46.626;18.866;2023-02-28T14:35:46;11.55;;;7.40;;
58071;SDS011;60383;46.626;18.866;2023-02-28T14:44:13;10.38;;;7.45;;
58071;SDS011;60383;46.626;18.866;2023-02-28T14:46:46;10.00;;;7.22;;
58071;SDS011;60383;46.626;18.866;2023-02-28T14:52:05;10.90;;;7.15;;
58071;SDS011;60383;46.626;18.866;2023-02-28T14:54:37;16.58;;;10.38;;
58071;SDS011;60383;46.626;18.866;2023-02-28T14:57:04;12.73;;;8.48;;
58071;SDS011;60383;46.626;18.866;2023-02-28T14:59:34;11.65;;;7.57;;
58071;SDS011;60383;46.626;18.866;2023-02-28T15:02:20;11.15;;;8.23;;
58071;SDS011;60383;46.626;18.866;2023-02-28T15:04:57;11.23;;;7.50;;
58071;SDS011;60383;46.626;18.866;2023-02-28T15:07:27;10.85;;;7.75;;
58071;SDS011;60383;46.626;18.866;2023-02-28T15:12:34;13.45;;;7.90;;
58071;SDS011;60383;46.626;18.866;2023-02-28T15:15:00;13.20;;;8.85;;
58071;SDS011;60383;46.626;18.866;2023-02-28T15:17:26;12.38;;;8.35;;
58071;SDS011;60383;46.626;18.866;2023-02-28T15:19:52;11.73;;;8.30;;
58071;SDS011;60383;46.626;18.866;2023-02-28T15:22:20;11.55;;;8.65;;
58071;SDS011;60383;46.626;18.866;2023-02-28T15:25:01;13.40;;;8.85;;
58071;SDS011;60383;46.626;18.866;2023-02-28T15:27:31;13.10;;;8.40;;
58071;SDS011;60383;46.626;18.866;2023-02-28T15:30:04;11.20;;;8.05;;
58071;SDS011;60383;46.626;18.866;2023-02-28T15:32:35;11.68;;;7.97;;
58071;SDS011;60383;46.626;18.866;2023-02-28T15:37:57;14.07;;;8.73;;
58071;SDS011;60383;46.626;18.866;2023-02-28T15:40:46;11.02;;;7.45;;
58071;SDS011;60383;46.626;18.866;2023-02-28T15:43:23;11.98;;;7.60;;
58071;SDS011;60383;46.626;18.866;2023-02-28T15:48:25;13.00;;;8.18;;
58071;SDS011;60383;46.626;18.866;2023-02-28T15:50:56;12.90;;;8.32;;
58071;SDS011;60383;46.626;18.866;2023-02-28T15:53:37;11.15;;;8.20;;
58071;SDS011;60383;46.626;18.866;2023-02-28T15:58:54;12.75;;;7.57;;
58071;SDS011;60383;46.626;18.866;2023-02-28T16:03:58;14.40;;;8.80;;
58071;SDS011;60383;46.626;18.866;2023-02-28T16:06:34;11.07;;;7.57;;
58071;SDS011;60383;46.626;18.866;2023-02-28T16:09:13;13.43;;;8.18;;
58071;SDS011;60383;46.626;18.866;2023-02-28T16:11:44;12.90;;;8.20;;
58071;SDS011;60383;46.626;18.866;2023-02-28T16:14:14;14.57;;;9.18;;
58071;SDS011;60383;46.626;18.866;2023-02-28T16:16:42;14.30;;;9.30;;
58071;SDS011;60383;46.626;18.866;2023-02-28T16:19:09;12.57;;;7.95;;
58071;SDS011;60383;46.626;18.866;2023-02-28T16:21:35;14.10;;;9.32;;
58071;SDS011;60383;46.626;18.866;2023-02-28T16:24:01;14.70;;;9.40;;
58071;SDS011;60383;46.626;18.866;2023-02-28T16:26:26;14.85;;;9.43;;
58071;SDS011;60383;46.626;18.866;2023-02-28T16:28:53;14.15;;;9.65;;
58071;SDS011;60383;46.626;18.866;2023-02-28T16:31:19;14.00;;;8.55;;
58071;SDS011;60383;46.626;18.866;2023-02-28T16:33:45;14.13;;;8.57;;
58071;SDS011;60383;46.626;18.866;2023-02-28T16:36:19;13.80;;;8.80;;
58071;SDS011;60383;46.626;18.866;2023-02-28T16:38:46;12.60;;;8.35;;
58071;SDS011;60383;46.626;18.866;2023-02-28T16:41:12;12.43;;;8.82;;
58071;SDS011;60383;46.626;18.866;2023-02-28T16:43:44;14.20;;;9.15;;
58071;SDS011;60383;46.626;18.866;2023-02-28T16:46:12;12.05;;;8.38;;
58071;SDS011;60383;46.626;18.866;2023-02-28T16:48:38;14.02;;;9.52;;
58071;SDS011;60383;46.626;18.866;2023-02-28T16:51:05;14.38;;;9.15;;
58071;SDS011;60383;46.626;18.866;2023-02-28T16:53:35;15.18;;;9.18;;
58071;SDS011;60383;46.626;18.866;2023-02-28T16:56:01;13.30;;;9.07;;
58071;SDS011;60383;46.626;18.866;2023-02-28T16:58:27;15.32;;;9.88;;
58071;SDS011;60383;46.626;18.866;2023-02-28T17:00:52;16.95;;;9.60;;
58071;SDS011;60383;46.626;18.866;2023-02-28T17:03:25;15.35;;;10.18;;
58071;SDS011;60383;46.626;18.866;2023-02-28T17:05:52;17.10;;;10.05;;
58071;SDS011;60383;46.626;18.866;2023-02-28T17:08:17;17.50;;;10.90;;
58071;SDS011;60383;46.626;18.866;2023-02-28T17:10:43;17.10;;;10.77;;
58071;SDS011;60383;46.626;18.866;2023-02-28T17:13:08;15.00;;;9.50;;
58071;SDS011;60383;46.626;18.866;2023-02-28T17:15:34;14.55;;;9.40;;
58071;SDS011;60383;46.626;18.866;2023-02-28T17:18:01;14.63;;;9.63;;
58071;SDS011;60383;46.626;18.866;2023-02-28T17:20:27;14.50;;;9.70;;
58071;SDS011;60383;46.626;18.866;2023-02-28T17:22:53;15.30;;;10.20;;
58071;SDS011;60383;46.626;18.866;2023-02-28T17:25:19;15.13;;;9.50;;
58071;SDS011;60383;46.626;18.866;2023-02-28T17:27:45;16.95;;;9.90;;
58071;SDS011;60383;46.626;18.866;2023-02-28T17:30:15;14.70;;;10.20;;
58071;SDS011;60383;46.626;18.866;2023-02-28T17:32:43;14.35;;;9.77;;
58071;SDS011;60383;46.626;18.866;2023-02-28T17:35:08;16.10;;;10.10;;
58071;SDS011;60383;46.626;18.866;2023-02-28T17:37:34;15.52;;;9.93;;
58071;SDS011;60383;46.626;18.866;2023-02-28T17:40:00;16.83;;;9.55;;
58071;SDS011;60383;46.626;18.866;2023-02-28T17:42:26;15.45;;;9.85;;